sensor_id;sensor_type;location;lat;lon;timestamp;P1;durP1;ratioP1;P2;durP2;ratioP2
72284;SDS011;60220;53.552;10.092;2023-02-01T00:02:02;21.75;;;3.25;;
72284;SDS011;60220;53.552;10.092;2023-02-01T00:04:28;23.27;;;3.42;;
72284;SDS011;60220;53.552;10.092;2023-02-01T00:06:54;21.10;;;3.10;;
72284;SDS011;60220;53.552;10.092;2023-02-01T00:09:20;19.42;;;3.33;;
72284;SDS011;60220;53.552;10.092;2023-02-01T00:11:46;20.42;;;3.17;;
72284;SDS011;60220;53.552;10.092;2023-02-01T00:14:12;24.92;;;3.88;;
72284;SDS011;60220;53.552;10.092;2023-02-01T00:16:38;21.05;;;3.40;;
72284;SDS011;60220;53.552;10.092;2023-02-01T00:19:06;26.33;;;4.20;;
72284;SDS011;60220;53.552;10.092;2023-02-01T00:21:35;24.85;;;3.33;;
72284;SDS011;60220;53.552;10.092;2023-02-01T00:24:01;31.10;;;5.30;;
72284;SDS011;60220;53.552;10.092;2023-02-01T00:26:30;35.22;;;4.85;;
72284;SDS011;60220;53.552;10.092;2023-02-01T00:28:57;34.83;;;4.10;;
72284;SDS011;60220;53.552;10.092;2023-02-01T00:31:24;29.90;;;4.05;;
72284;SDS011;60220;53.552;10.092;2023-02-01T00:33:50;34.33;;;4.38;;
72284;SDS011;60220;53.552;10.092;2023-02-01T00:36:17;33.20;;;4.97;;
72284;SDS011;60220;53.552;10.092;2023-02-01T00:38:43;25.30;;;3.65;;
72284;SDS011;60220;53.552;10.092;2023-02-01T00:41:13;24.95;;;3.25;;
72284;SDS011;60220;53.552;10.092;2023-02-01T00:43:40;27.30;;;4.20;;
72284;SDS011;60220;53.552;10.092;2023-02-01T00:46:07;19.98;;;4.07;;
72284;SDS011;60220;53.552;10.092;2023-02-01T00:48:33;36.38;;;5.18;;
72284;SDS011;60220;53.552;10.092;2023-02-01T00:51:00;33.08;;;4.15;;
72284;SDS011;60220;53.552;10.092;2023-02-01T00:53:27;29.33;;;4.47;;
72284;SDS011;60220;53.552;10.092;2023-02-01T00:55:53;28.70;;;5.43;;
72284;SDS011;60220;53.552;10.092;2023-02-01T00:58:19;27.02;;;4.47;;
72284;SDS011;60220;53.552;10.092;2023-02-01T01:00:45;19.55;;;4.07;;
72284;SDS011;60220;53.552;10.092;2023-02-01T01:03:12;23.88;;;4.22;;
72284;SDS011;60220;53.552;10.092;2023-02-01T01:05:45;30.80;;;4.63;;
72284;SDS011;60220;53.552;10.092;2023-02-01T01:08:11;27.40;;;4.63;;
72284;SDS011;60220;53.552;10.092;2023-02-01T01:10:38;31.52;;;4.18;;
72284;SDS011;60220;53.552;10.092;2023-02-01T01:13:04;47.38;;;4.63;;
72284;SDS011;60220;53.552;10.092;2023-02-01T01:15:30;27.40;;;4.70;;
72284;SDS011;60220;53.552;10.092;2023-02-01T01:17:56;33.97;;;4.88;;
72284;SDS011;60220;53.552;10.092;2023-02-01T01:20:22;30.98;;;5.22;;
72284;SDS011;60220;53.552;10.092;2023-02-01T01:22:48;32.47;;;5.63;;
72284;SDS011;60220;53.552;10.092;2023-02-01T01:25:14;25.83;;;5.50;;
72284;SDS011;60220;53.552;10.092;2023-02-01T01:27:41;31.35;;;5.10;;
72284;SDS011;60220;53.552;10.092;2023-02-01T01:30:10;23.02;;;4.05;;
72284;SDS011;60220;53.552;10.092;2023-02-01T01:32:36;37.08;;;4.65;;
72284;SDS011;60220;53.552;10.092;2023-02-01T01:35:02;34.10;;;5.15;;
72284;SDS011;60220;53.552;10.092;2023-02-01T01:37:28;33.17;;;5.55;;
72284;SDS011;60220;53.552;10.092;2023-02-01T01:39:54;23.73;;;4.72;;
72284;SDS011;60220;53.552;10.092;2023-02-01T01:42:20;37.70;;;5.63;;
72284;SDS011;60220;53.552;10.092;2023-02-01T01:45:00;39.08;;;5.15;;
72284;SDS011;60220;53.552;10.092;2023-02-01T01:47:29;33.10;;;5.60;;
72284;SDS011;60220;53.552;10.092;2023-02-01T01:49:59;28.45;;;5.30;;
72284;SDS011;60220;53.552;10.092;2023-02-01T01:52:28;35.28;;;4.72;;
72284;SDS011;60220;53.552;10.092;2023-02-01T01:54:57;22.83;;;3.85;;
72284;SDS011;60220;53.552;10.092;2023-02-01T01:57:25;37.47;;;4.88;;
72284;SDS011;60220;53.552;10.092;2023-02-01T01:59:55;35.83;;;4.88;;
72284;SDS011;60220;53.552;10.092;2023-02-01T02:04:57;22.73;;;3.22;;
72284;SDS011;60220;53.552;10.092;2023-02-01T02:07:25;27.02;;;4.05;;
72284;SDS011;60220;53.552;10.092;2023-02-01T02:09:55;30.63;;;5.22;;
72284;SDS011;60220;53.552;10.092;2023-02-01T02:12:22;24.52;;;3.55;;
72284;SDS011;60220;53.552;10.092;2023-02-01T02:14:48;32.55;;;5.55;;
72284;SDS011;60220;53.552;10.092;2023-02-01T02:17:26;46.40;;;4.82;;
72284;SDS011;60220;53.552;10.092;2023-02-01T02:23:21;24.13;;;5.32;;
72284;SDS011;60220;53.552;10.092;2023-02-01T02:26:13;30.75;;;5.80;;
72284;SDS011;60220;53.552;10.092;2023-02-01T02:29:00;38.22;;;5.82;;
72284;SDS011;60220;53.552;10.092;2023-02-01T02:32:01;35.75;;;4.18;;
72284;SDS011;60220;53.552;10.092;2023-02-01T02:34:38;22.00;;;4.38;;
72284;SDS011;60220;53.552;10.092;2023-02-01T02:37:11;29.25;;;5.20;;
72284;SDS011;60220;53.552;10.092;2023-02-01T02:39:48;33.50;;;4.43;;
72284;SDS011;60220;53.552;10.092;2023-02-01T02:42:20;37.47;;;5.78;;
72284;SDS011;60220;53.552;10.092;2023-02-01T02:45:13;35.20;;;6.47;;
72284;SDS011;60220;53.552;10.092;2023-02-01T02:48:04;26.38;;;3.70;;
72284;SDS011;60220;53.552;10.092;2023-02-01T02:50:40;42.90;;;5.40;;
72284;SDS011;60220;53.552;10.092;2023-02-01T02:53:31;29.10;;;5.05;;
72284;SDS011;60220;53.552;10.092;2023-02-01T02:56:20;35.42;;;4.47;;
72284;SDS011;60220;53.552;10.092;2023-02-01T02:59:07;24.17;;;4.65;;
72284;SDS011;60220;53.552;10.092;2023-02-01T03:01:53;31.02;;;5.35;;
72284;SDS011;60220;53.552;10.092;2023-02-01T03:04:38;43.72;;;5.50;;
72284;SDS011;60220;53.552;10.092;2023-02-01T03:07:12;26.80;;;5.03;;
72284;SDS011;60220;53.552;10.092;2023-02-01T03:09:41;32.92;;;4.10;;
72284;SDS011;60220;53.552;10.092;2023-02-01T03:12:12;41.13;;;5.55;;
72284;SDS011;60220;53.552;10.092;2023-02-01T03:15:00;40.80;;;6.07;;
72284;SDS011;60220;53.552;10.092;2023-02-01T03:17:32;29.75;;;4.88;;
72284;SDS011;60220;53.552;10.092;2023-02-01T03:20:05;24.23;;;5.07;;
72284;SDS011;60220;53.552;10.092;2023-02-01T03:22:33;45.85;;;4.93;;
72284;SDS011;60220;53.552;10.092;2023-02-01T03:25:02;26.88;;;4.15;;
72284;SDS011;60220;53.552;10.092;2023-02-01T03:27:37;22.00;;;4.45;;
72284;SDS011;60220;53.552;10.092;2023-02-01T03:30:09;27.85;;;4.25;;
72284;SDS011;60220;53.552;10.092;2023-02-01T03:32:45;21.52;;;2.65;;
72284;SDS011;60220;53.552;10.092;2023-02-01T03:35:28;25.25;;;4.95;;
72284;SDS011;60220;53.552;10.092;2023-02-01T03:38:01;39.97;;;4.97;;
72284;SDS011;60220;53.552;10.092;2023-02-01T03:40:32;24.42;;;4.20;;
72284;SDS011;60220;53.552;10.092;2023-02-01T03:43:02;20.65;;;3.35;;
72284;SDS011;60220;53.552;10.092;2023-02-01T03:45:33;26.42;;;3.33;;
72284;SDS011;60220;53.552;10.092;2023-02-01T03:48:04;16.40;;;2.80;;
72284;SDS011;60220;53.552;10.092;2023-02-01T03:50:31;15.45;;;3.30;;
72284;SDS011;60220;53.552;10.092;2023-02-01T03:53:02;19.67;;;2.92;;
72284;SDS011;60220;53.552;10.092;2023-02-01T03:55:32;24.58;;;2.65;;
72284;SDS011;60220;53.552;10.092;2023-02-01T03:58:01;14.32;;;1.95;;
72284;SDS011;60220;53.552;10.092;2023-02-01T04:00:34;9.18;;;2.03;;
72284;SDS011;60220;53.552;10.092;2023-02-01T04:03:03;14.75;;;3.28;;
72284;SDS011;60220;53.552;10.092;2023-02-01T04:05:31;17.80;;;3.00;;
72284;SDS011;60220;53.552;10.092;2023-02-01T04:07:57;13.27;;;2.58;;
72284;SDS011;60220;53.552;10.092;2023-02-01T04:10:24;17.52;;;2.63;;
72284;SDS011;60220;53.552;10.092;2023-02-01T04:12:52;38.72;;;4.45;;
72284;SDS011;60220;53.552;10.092;2023-02-01T04:15:18;15.18;;;2.35;;
72284;SDS011;60220;53.552;10.092;2023-02-01T04:17:44;30.52;;;3.60;;
72284;SDS011;60220;53.552;10.092;2023-02-01T04:20:12;17.08;;;3.03;;
72284;SDS011;60220;53.552;10.092;2023-02-01T04:22:40;22.10;;;3.58;;
72284;SDS011;60220;53.552;10.092;2023-02-01T04:25:07;23.23;;;3.42;;
72284;SDS011;60220;53.552;10.092;2023-02-01T04:27:34;19.42;;;3.60;;
72284;SDS011;60220;53.552;10.092;2023-02-01T04:30:00;23.15;;;3.22;;
72284;SDS011;60220;53.552;10.092;2023-02-01T04:32:29;12.00;;;2.63;;
72284;SDS011;60220;53.552;10.092;2023-02-01T04:34:57;17.60;;;3.25;;
72284;SDS011;60220;53.552;10.092;2023-02-01T04:37:28;16.90;;;2.30;;
72284;SDS011;60220;53.552;10.092;2023-02-01T04:39:54;13.77;;;2.90;;
72284;SDS011;60220;53.552;10.092;2023-02-01T04:42:21;10.52;;;2.20;;
72284;SDS011;60220;53.552;10.092;2023-02-01T04:44:47;16.25;;;3.08;;
72284;SDS011;60220;53.552;10.092;2023-02-01T04:47:16;16.13;;;3.47;;
72284;SDS011;60220;53.552;10.092;2023-02-01T04:49:42;10.68;;;1.75;;
72284;SDS011;60220;53.552;10.092;2023-02-01T04:52:08;12.40;;;2.10;;
72284;SDS011;60220;53.552;10.092;2023-02-01T04:54:34;14.55;;;2.80;;
72284;SDS011;60220;53.552;10.092;2023-02-01T04:57:00;19.17;;;2.90;;
72284;SDS011;60220;53.552;10.092;2023-02-01T04:59:30;14.27;;;2.80;;
72284;SDS011;60220;53.552;10.092;2023-02-01T05:01:57;8.32;;;2.22;;
72284;SDS011;60220;53.552;10.092;2023-02-01T05:04:23;17.55;;;2.92;;
72284;SDS011;60220;53.552;10.092;2023-02-01T05:06:53;9.32;;;1.65;;
72284;SDS011;60220;53.552;10.092;2023-02-01T05:09:19;10.27;;;1.88;;
72284;SDS011;60220;53.552;10.092;2023-02-01T05:11:49;20.15;;;2.20;;
72284;SDS011;60220;53.552;10.092;2023-02-01T05:14:36;5.70;;;1.40;;
72284;SDS011;60220;53.552;10.092;2023-02-01T05:17:02;14.98;;;2.05;;
72284;SDS011;60220;53.552;10.092;2023-02-01T05:19:30;4.63;;;0.95;;
72284;SDS011;60220;53.552;10.092;2023-02-01T05:21:58;7.07;;;0.77;;
72284;SDS011;60220;53.552;10.092;2023-02-01T05:24:24;8.13;;;0.95;;
72284;SDS011;60220;53.552;10.092;2023-02-01T05:26:52;8.60;;;0.77;;
72284;SDS011;60220;53.552;10.092;2023-02-01T05:29:18;3.90;;;1.10;;
72284;SDS011;60220;53.552;10.092;2023-02-01T05:31:44;2.95;;;0.60;;
72284;SDS011;60220;53.552;10.092;2023-02-01T05:34:12;1.45;;;0.50;;
72284;SDS011;60220;53.552;10.092;2023-02-01T05:36:38;2.22;;;0.47;;
72284;SDS011;60220;53.552;10.092;2023-02-01T05:39:04;2.75;;;0.68;;
72284;SDS011;60220;53.552;10.092;2023-02-01T05:41:32;2.28;;;0.68;;
72284;SDS011;60220;53.552;10.092;2023-02-01T05:43:58;3.40;;;0.73;;
72284;SDS011;60220;53.552;10.092;2023-02-01T05:46:24;2.88;;;0.50;;
72284;SDS011;60220;53.552;10.092;2023-02-01T05:48:50;6.07;;;0.63;;
72284;SDS011;60220;53.552;10.092;2023-02-01T05:51:17;1.83;;;0.50;;
72284;SDS011;60220;53.552;10.092;2023-02-01T05:53:43;6.20;;;0.82;;
72284;SDS011;60220;53.552;10.092;2023-02-01T05:56:09;2.15;;;0.70;;
72284;SDS011;60220;53.552;10.092;2023-02-01T05:58:35;6.25;;;0.75;;
72284;SDS011;60220;53.552;10.092;2023-02-01T06:01:01;3.88;;;0.73;;
72284;SDS011;60220;53.552;10.092;2023-02-01T06:03:30;1.50;;;0.50;;
72284;SDS011;60220;53.552;10.092;2023-02-01T06:05:57;3.42;;;0.60;;
72284;SDS011;60220;53.552;10.092;2023-02-01T06:08:23;1.92;;;0.88;;
72284;SDS011;60220;53.552;10.092;2023-02-01T06:10:50;1.13;;;0.43;;
72284;SDS011;60220;53.552;10.092;2023-02-01T06:13:22;1.75;;;0.60;;
72284;SDS011;60220;53.552;10.092;2023-02-01T06:15:48;5.15;;;0.68;;
72284;SDS011;60220;53.552;10.092;2023-02-01T06:18:16;3.20;;;0.90;;
72284;SDS011;60220;53.552;10.092;2023-02-01T06:20:43;1.13;;;0.60;;
72284;SDS011;60220;53.552;10.092;2023-02-01T06:23:11;8.27;;;0.90;;
72284;SDS011;60220;53.552;10.092;2023-02-01T06:25:41;14.65;;;5.43;;
72284;SDS011;60220;53.552;10.092;2023-02-01T06:28:07;8.60;;;1.10;;
72284;SDS011;60220;53.552;10.092;2023-02-01T06:30:33;2.83;;;0.63;;
72284;SDS011;60220;53.552;10.092;2023-02-01T06:33:01;3.95;;;0.60;;
72284;SDS011;60220;53.552;10.092;2023-02-01T06:35:27;4.03;;;0.88;;
72284;SDS011;60220;53.552;10.092;2023-02-01T06:37:53;6.68;;;1.23;;
72284;SDS011;60220;53.552;10.092;2023-02-01T06:40:19;6.13;;;1.42;;
72284;SDS011;60220;53.552;10.092;2023-02-01T06:42:46;3.65;;;1.10;;
72284;SDS011;60220;53.552;10.092;2023-02-01T06:45:16;6.00;;;1.30;;
72284;SDS011;60220;53.552;10.092;2023-02-01T06:47:42;12.35;;;1.25;;
72284;SDS011;60220;53.552;10.092;2023-02-01T06:50:08;9.70;;;2.40;;
72284;SDS011;60220;53.552;10.092;2023-02-01T06:52:37;12.75;;;1.92;;
72284;SDS011;60220;53.552;10.092;2023-02-01T06:55:03;6.43;;;1.80;;
72284;SDS011;60220;53.552;10.092;2023-02-01T06:57:30;9.20;;;2.15;;
72284;SDS011;60220;53.552;10.092;2023-02-01T06:59:58;15.82;;;2.28;;
72284;SDS011;60220;53.552;10.092;2023-02-01T07:02:24;8.57;;;1.95;;
72284;SDS011;60220;53.552;10.092;2023-02-01T07:04:50;16.45;;;2.53;;
72284;SDS011;60220;53.552;10.092;2023-02-01T07:07:16;8.88;;;1.90;;
72284;SDS011;60220;53.552;10.092;2023-02-01T07:09:44;8.52;;;1.67;;
72284;SDS011;60220;53.552;10.092;2023-02-01T07:12:10;19.55;;;5.03;;
72284;SDS011;60220;53.552;10.092;2023-02-01T07:14:36;18.77;;;2.53;;
72284;SDS011;60220;53.552;10.092;2023-02-01T07:17:03;20.77;;;4.88;;
72284;SDS011;60220;53.552;10.092;2023-02-01T07:19:29;21.48;;;4.13;;
72284;SDS011;60220;53.552;10.092;2023-02-01T07:21:55;20.95;;;3.50;;
72284;SDS011;60220;53.552;10.092;2023-02-01T07:24:21;20.83;;;2.40;;
72284;SDS011;60220;53.552;10.092;2023-02-01T07:26:47;26.33;;;3.15;;
72284;SDS011;60220;53.552;10.092;2023-02-01T07:29:18;18.67;;;3.00;;
72284;SDS011;60220;53.552;10.092;2023-02-01T07:31:44;29.33;;;4.15;;
72284;SDS011;60220;53.552;10.092;2023-02-01T07:34:11;22.45;;;3.83;;
72284;SDS011;60220;53.552;10.092;2023-02-01T07:36:37;6.68;;;2.35;;
72284;SDS011;60220;53.552;10.092;2023-02-01T07:39:06;23.25;;;2.53;;
72284;SDS011;60220;53.552;10.092;2023-02-01T07:41:32;18.25;;;2.58;;
72284;SDS011;60220;53.552;10.092;2023-02-01T07:43:58;13.13;;;2.10;;
72284;SDS011;60220;53.552;10.092;2023-02-01T07:46:24;13.68;;;3.22;;
72284;SDS011;60220;53.552;10.092;2023-02-01T07:48:52;9.73;;;2.03;;
72284;SDS011;60220;53.552;10.092;2023-02-01T07:51:21;17.83;;;2.75;;
72284;SDS011;60220;53.552;10.092;2023-02-01T07:53:47;18.98;;;2.92;;
72284;SDS011;60220;53.552;10.092;2023-02-01T07:56:14;22.58;;;3.70;;
72284;SDS011;60220;53.552;10.092;2023-02-01T07:58:41;34.78;;;4.28;;
72284;SDS011;60220;53.552;10.092;2023-02-01T08:01:11;37.08;;;4.10;;
72284;SDS011;60220;53.552;10.092;2023-02-01T08:03:45;35.65;;;5.03;;
72284;SDS011;60220;53.552;10.092;2023-02-01T08:06:12;22.95;;;3.97;;
72284;SDS011;60220;53.552;10.092;2023-02-01T08:08:38;25.48;;;3.88;;
72284;SDS011;60220;53.552;10.092;2023-02-01T08:11:06;25.45;;;4.25;;
72284;SDS011;60220;53.552;10.092;2023-02-01T08:13:33;28.17;;;4.28;;
72284;SDS011;60220;53.552;10.092;2023-02-01T08:15:59;22.17;;;4.05;;
72284;SDS011;60220;53.552;10.092;2023-02-01T08:18:28;40.85;;;5.55;;
72284;SDS011;60220;53.552;10.092;2023-02-01T08:20:55;24.35;;;3.72;;
72284;SDS011;60220;53.552;10.092;2023-02-01T08:23:21;36.70;;;4.45;;
72284;SDS011;60220;53.552;10.092;2023-02-01T08:25:48;26.52;;;4.35;;
72284;SDS011;60220;53.552;10.092;2023-02-01T08:28:14;37.67;;;5.28;;
72284;SDS011;60220;53.552;10.092;2023-02-01T08:30:40;38.47;;;5.45;;
72284;SDS011;60220;53.552;10.092;2023-02-01T08:33:07;22.70;;;3.70;;
72284;SDS011;60220;53.552;10.092;2023-02-01T08:35:34;20.83;;;2.47;;
72284;SDS011;60220;53.552;10.092;2023-02-01T08:38:01;27.38;;;4.60;;
72284;SDS011;60220;53.552;10.092;2023-02-01T08:40:27;31.90;;;4.22;;
72284;SDS011;60220;53.552;10.092;2023-02-01T08:42:56;23.92;;;4.38;;
72284;SDS011;60220;53.552;10.092;2023-02-01T08:45:23;36.78;;;4.97;;
72284;SDS011;60220;53.552;10.092;2023-02-01T08:47:53;18.95;;;2.90;;
72284;SDS011;60220;53.552;10.092;2023-02-01T08:50:21;27.90;;;4.43;;
72284;SDS011;60220;53.552;10.092;2023-02-01T08:52:48;29.30;;;4.85;;
72284;SDS011;60220;53.552;10.092;2023-02-01T08:55:14;30.73;;;3.78;;
72284;SDS011;60220;53.552;10.092;2023-02-01T08:57:41;27.77;;;3.60;;
72284;SDS011;60220;53.552;10.092;2023-02-01T09:00:09;26.70;;;6.78;;
72284;SDS011;60220;53.552;10.092;2023-02-01T09:02:37;39.03;;;5.22;;
72284;SDS011;60220;53.552;10.092;2023-02-01T09:05:04;20.92;;;2.95;;
72284;SDS011;60220;53.552;10.092;2023-02-01T09:07:31;17.02;;;2.75;;
72284;SDS011;60220;53.552;10.092;2023-02-01T09:09:57;29.90;;;4.40;;
72284;SDS011;60220;53.552;10.092;2023-02-01T09:12:26;22.75;;;4.38;;
72284;SDS011;60220;53.552;10.092;2023-02-01T09:14:52;29.05;;;4.45;;
72284;SDS011;60220;53.552;10.092;2023-02-01T09:17:18;27.35;;;5.07;;
72284;SDS011;60220;53.552;10.092;2023-02-01T09:19:47;22.52;;;3.70;;
72284;SDS011;60220;53.552;10.092;2023-02-01T09:22:14;31.58;;;4.35;;
72284;SDS011;60220;53.552;10.092;2023-02-01T09:24:40;23.95;;;4.38;;
72284;SDS011;60220;53.552;10.092;2023-02-01T09:27:06;19.10;;;3.38;;
72284;SDS011;60220;53.552;10.092;2023-02-01T09:29:34;19.95;;;2.67;;
72284;SDS011;60220;53.552;10.092;2023-02-01T09:32:00;21.27;;;3.22;;
72284;SDS011;60220;53.552;10.092;2023-02-01T09:34:29;25.10;;;3.88;;
72284;SDS011;60220;53.552;10.092;2023-02-01T09:36:58;26.52;;;4.07;;
72284;SDS011;60220;53.552;10.092;2023-02-01T09:39:24;18.15;;;3.88;;
72284;SDS011;60220;53.552;10.092;2023-02-01T09:41:52;34.10;;;4.07;;
72284;SDS011;60220;53.552;10.092;2023-02-01T09:44:30;17.55;;;3.58;;
72284;SDS011;60220;53.552;10.092;2023-02-01T09:47:09;27.02;;;3.20;;
72284;SDS011;60220;53.552;10.092;2023-02-01T09:49:39;23.20;;;3.55;;
72284;SDS011;60220;53.552;10.092;2023-02-01T09:52:16;25.02;;;4.13;;
72284;SDS011;60220;53.552;10.092;2023-02-01T09:54:49;25.30;;;4.22;;
72284;SDS011;60220;53.552;10.092;2023-02-01T09:57:23;21.58;;;4.20;;
72284;SDS011;60220;53.552;10.092;2023-02-01T09:59:52;25.08;;;3.53;;
72284;SDS011;60220;53.552;10.092;2023-02-01T10:02:23;21.38;;;3.78;;
72284;SDS011;60220;53.552;10.092;2023-02-01T10:04:52;12.27;;;1.98;;
72284;SDS011;60220;53.552;10.092;2023-02-01T10:07:23;22.35;;;3.40;;
72284;SDS011;60220;53.552;10.092;2023-02-01T10:09:58;40.05;;;6.38;;
72284;SDS011;60220;53.552;10.092;2023-02-01T10:15:35;20.63;;;3.47;;
72284;SDS011;60220;53.552;10.092;2023-02-01T10:21:21;22.08;;;4.35;;
72284;SDS011;60220;53.552;10.092;2023-02-01T10:27:07;20.77;;;3.13;;
72284;SDS011;60220;53.552;10.092;2023-02-01T10:29:39;22.23;;;3.58;;
72284;SDS011;60220;53.552;10.092;2023-02-01T10:32:11;22.58;;;2.78;;
72284;SDS011;60220;53.552;10.092;2023-02-01T10:34:42;21.25;;;3.22;;
72284;SDS011;60220;53.552;10.092;2023-02-01T10:37:15;20.27;;;2.88;;
72284;SDS011;60220;53.552;10.092;2023-02-01T10:39:52;17.98;;;3.13;;
72284;SDS011;60220;53.552;10.092;2023-02-01T10:42:20;19.08;;;3.35;;
72284;SDS011;60220;53.552;10.092;2023-02-01T10:44:49;27.08;;;3.80;;
72284;SDS011;60220;53.552;10.092;2023-02-01T10:47:15;29.27;;;3.33;;
72284;SDS011;60220;53.552;10.092;2023-02-01T10:49:43;22.55;;;2.92;;
72284;SDS011;60220;53.552;10.092;2023-02-01T10:52:17;24.90;;;3.25;;
72284;SDS011;60220;53.552;10.092;2023-02-01T10:54:48;30.88;;;4.18;;
72284;SDS011;60220;53.552;10.092;2023-02-01T10:57:20;22.10;;;3.65;;
72284;SDS011;60220;53.552;10.092;2023-02-01T10:59:48;29.08;;;4.15;;
72284;SDS011;60220;53.552;10.092;2023-02-01T11:02:16;16.98;;;3.42;;
72284;SDS011;60220;53.552;10.092;2023-02-01T11:04:57;22.25;;;3.33;;
72284;SDS011;60220;53.552;10.092;2023-02-01T11:07:26;19.33;;;3.47;;
72284;SDS011;60220;53.552;10.092;2023-02-01T11:09:54;24.30;;;3.25;;
72284;SDS011;60220;53.552;10.092;2023-02-01T11:12:26;19.55;;;3.03;;
72284;SDS011;60220;53.552;10.092;2023-02-01T11:14:57;28.10;;;4.40;;
72284;SDS011;60220;53.552;10.092;2023-02-01T11:17:26;22.58;;;3.00;;
72284;SDS011;60220;53.552;10.092;2023-02-01T11:19:56;17.38;;;3.38;;
72284;SDS011;60220;53.552;10.092;2023-02-01T11:22:26;29.13;;;3.50;;
72284;SDS011;60220;53.552;10.092;2023-02-01T11:24:53;18.23;;;3.28;;
72284;SDS011;60220;53.552;10.092;2023-02-01T11:27:20;26.25;;;3.38;;
72284;SDS011;60220;53.552;10.092;2023-02-01T11:29:49;26.80;;;4.13;;
72284;SDS011;60220;53.552;10.092;2023-02-01T11:32:17;21.35;;;3.78;;
72284;SDS011;60220;53.552;10.092;2023-02-01T11:34:49;24.80;;;3.60;;
72284;SDS011;60220;53.552;10.092;2023-02-01T11:37:20;27.13;;;4.43;;
72284;SDS011;60220;53.552;10.092;2023-02-01T11:39:53;23.10;;;3.65;;
72284;SDS011;60220;53.552;10.092;2023-02-01T11:42:23;28.55;;;3.80;;
72284;SDS011;60220;53.552;10.092;2023-02-01T11:44:50;30.50;;;4.63;;
72284;SDS011;60220;53.552;10.092;2023-02-01T11:47:21;14.55;;;3.58;;
72284;SDS011;60220;53.552;10.092;2023-02-01T11:49:50;14.50;;;2.88;;
72284;SDS011;60220;53.552;10.092;2023-02-01T11:55:38;21.42;;;3.53;;
72284;SDS011;60220;53.552;10.092;2023-02-01T11:58:13;18.95;;;3.55;;
72284;SDS011;60220;53.552;10.092;2023-02-01T12:00:54;19.13;;;3.40;;
72284;SDS011;60220;53.552;10.092;2023-02-01T12:03:38;31.48;;;2.97;;
72284;SDS011;60220;53.552;10.092;2023-02-01T12:06:22;26.35;;;4.30;;
72284;SDS011;60220;53.552;10.092;2023-02-01T12:09:05;9.32;;;2.08;;
72284;SDS011;60220;53.552;10.092;2023-02-01T12:11:43;16.55;;;2.95;;
72284;SDS011;60220;53.552;10.092;2023-02-01T12:14:23;15.55;;;2.42;;
72284;SDS011;60220;53.552;10.092;2023-02-01T12:20:13;12.82;;;2.45;;
72284;SDS011;60220;53.552;10.092;2023-02-01T12:22:53;14.00;;;2.38;;
72284;SDS011;60220;53.552;10.092;2023-02-01T12:25:30;11.60;;;1.92;;
72284;SDS011;60220;53.552;10.092;2023-02-01T12:28:16;4.70;;;1.40;;
72284;SDS011;60220;53.552;10.092;2023-02-01T12:31:02;14.93;;;2.42;;
72284;SDS011;60220;53.552;10.092;2023-02-01T12:33:50;15.95;;;2.70;;
72284;SDS011;60220;53.552;10.092;2023-02-01T12:36:32;6.70;;;1.63;;
72284;SDS011;60220;53.552;10.092;2023-02-01T12:39:09;8.60;;;1.73;;
72284;SDS011;60220;53.552;10.092;2023-02-01T12:41:51;7.70;;;1.15;;
72284;SDS011;60220;53.552;10.092;2023-02-01T12:44:25;5.65;;;0.90;;
72284;SDS011;60220;53.552;10.092;2023-02-01T12:46:57;4.25;;;1.10;;
72284;SDS011;60220;53.552;10.092;2023-02-01T12:49:28;6.95;;;1.15;;
72284;SDS011;60220;53.552;10.092;2023-02-01T12:52:01;7.80;;;1.20;;
72284;SDS011;60220;53.552;10.092;2023-02-01T12:54:34;3.67;;;0.85;;
72284;SDS011;60220;53.552;10.092;2023-02-01T12:57:05;3.25;;;0.82;;
72284;SDS011;60220;53.552;10.092;2023-02-01T12:59:36;3.70;;;1.13;;
72284;SDS011;60220;53.552;10.092;2023-02-01T13:02:08;5.90;;;0.73;;
72284;SDS011;60220;53.552;10.092;2023-02-01T13:04:43;2.75;;;0.85;;
72284;SDS011;60220;53.552;10.092;2023-02-01T13:07:21;2.95;;;1.20;;
72284;SDS011;60220;53.552;10.092;2023-02-01T13:09:53;3.63;;;0.88;;
72284;SDS011;60220;53.552;10.092;2023-02-01T13:12:26;3.30;;;1.10;;
72284;SDS011;60220;53.552;10.092;2023-02-01T13:14:59;3.47;;;0.57;;
72284;SDS011;60220;53.552;10.092;2023-02-01T13:17:30;4.30;;;1.10;;
72284;SDS011;60220;53.552;10.092;2023-02-01T13:19:59;3.63;;;0.80;;
72284;SDS011;60220;53.552;10.092;2023-02-01T13:22:31;5.03;;;0.90;;
72284;SDS011;60220;53.552;10.092;2023-02-01T13:25:01;6.50;;;1.00;;
72284;SDS011;60220;53.552;10.092;2023-02-01T13:27:31;1.17;;;0.45;;
72284;SDS011;60220;53.552;10.092;2023-02-01T13:30:01;0.70;;;0.50;;
72284;SDS011;60220;53.552;10.092;2023-02-01T13:32:45;1.38;;;0.70;;
72284;SDS011;60220;53.552;10.092;2023-02-01T13:35:31;1.95;;;0.75;;
72284;SDS011;60220;53.552;10.092;2023-02-01T13:38:29;5.05;;;1.10;;
72284;SDS011;60220;53.552;10.092;2023-02-01T13:41:22;2.08;;;0.60;;
72284;SDS011;60220;53.552;10.092;2023-02-01T13:43:54;3.67;;;1.30;;
72284;SDS011;60220;53.552;10.092;2023-02-01T13:46:23;5.82;;;1.13;;
72284;SDS011;60220;53.552;10.092;2023-02-01T13:48:52;1.52;;;0.40;;
72284;SDS011;60220;53.552;10.092;2023-02-01T13:51:31;3.50;;;0.75;;
72284;SDS011;60220;53.552;10.092;2023-02-01T13:54:01;2.03;;;0.80;;
72284;SDS011;60220;53.552;10.092;2023-02-01T13:56:38;10.95;;;3.80;;
72284;SDS011;60220;53.552;10.092;2023-02-01T14:05:02;2.33;;;0.60;;
72284;SDS011;60220;53.552;10.092;2023-02-01T14:07:29;4.32;;;0.57;;
72284;SDS011;60220;53.552;10.092;2023-02-01T14:09:56;5.43;;;1.25;;
72284;SDS011;60220;53.552;10.092;2023-02-01T14:15:23;7.13;;;1.30;;
72284;SDS011;60220;53.552;10.092;2023-02-01T14:17:52;2.05;;;0.60;;
72284;SDS011;60220;53.552;10.092;2023-02-01T14:23:15;10.68;;;1.15;;
72284;SDS011;60220;53.552;10.092;2023-02-01T14:25:43;2.90;;;0.60;;
72284;SDS011;60220;53.552;10.092;2023-02-01T14:28:11;7.18;;;1.35;;
72284;SDS011;60220;53.552;10.092;2023-02-01T14:30:47;7.35;;;1.77;;
72284;SDS011;60220;53.552;10.092;2023-02-01T14:36:03;8.90;;;1.30;;
72284;SDS011;60220;53.552;10.092;2023-02-01T14:38:33;14.07;;;2.03;;
72284;SDS011;60220;53.552;10.092;2023-02-01T14:41:16;8.13;;;1.75;;
72284;SDS011;60220;53.552;10.092;2023-02-01T14:43:51;3.78;;;0.80;;
72284;SDS011;60220;53.552;10.092;2023-02-01T14:52:17;8.10;;;0.93;;
72284;SDS011;60220;53.552;10.092;2023-02-01T14:54:49;13.25;;;1.20;;
72284;SDS011;60220;53.552;10.092;2023-02-01T14:57:20;9.27;;;1.35;;
72284;SDS011;60220;53.552;10.092;2023-02-01T14:59:52;15.43;;;1.83;;
72284;SDS011;60220;53.552;10.092;2023-02-01T15:02:30;13.68;;;2.15;;
72284;SDS011;60220;53.552;10.092;2023-02-01T15:05:01;11.60;;;2.55;;
72284;SDS011;60220;53.552;10.092;2023-02-01T15:07:27;20.40;;;2.25;;
72284;SDS011;60220;53.552;10.092;2023-02-01T15:09:57;11.50;;;1.40;;
72284;SDS011;60220;53.552;10.092;2023-02-01T15:12:24;17.38;;;2.08;;
72284;SDS011;60220;53.552;10.092;2023-02-01T15:15:10;14.35;;;2.25;;
72284;SDS011;60220;53.552;10.092;2023-02-01T15:17:39;17.02;;;2.30;;
72284;SDS011;60220;53.552;10.092;2023-02-01T15:20:12;15.75;;;1.92;;
72284;SDS011;60220;53.552;10.092;2023-02-01T15:22:40;16.67;;;2.42;;
72284;SDS011;60220;53.552;10.092;2023-02-01T15:25:17;15.90;;;1.95;;
72284;SDS011;60220;53.552;10.092;2023-02-01T15:27:45;13.88;;;2.00;;